createdAt,value
2023-03-21T00:02:29.070Z,8.07
2023-03-21T00:05:05.890Z,8.20
2023-03-21T00:07:40.690Z,9.15
2023-03-21T00:10:16.726Z,8.32
2023-03-21T00:12:50.498Z,9.63
2023-03-21T00:15:20.645Z,10.13
2023-03-21T00:17:51.333Z,10.23
2023-03-21T00:20:20.852Z,9.95
2023-03-21T00:22:50.897Z,8.63
2023-03-21T00:25:19.385Z,9.73
2023-03-21T00:28:05.487Z,9.80
2023-03-21T00:30:40.879Z,10.48
2023-03-21T00:36:05.641Z,10.35
2023-03-21T00:38:36.808Z,10.15
2023-03-21T00:41:23.185Z,9.48
2023-03-21T00:44:00.136Z,11.00
2023-03-21T00:46:42.316Z,9.55
2023-03-21T00:49:12.326Z,9.70
2023-03-21T00:51:51.393Z,10.05
2023-03-21T00:54:26.079Z,9.80
2023-03-21T00:56:54.830Z,9.63
2023-03-21T00:59:23.533Z,8.63
2023-03-21T01:01:53.805Z,9.68
2023-03-21T01:04:26.496Z,9.20
2023-03-21T01:06:55.250Z,10.52
2023-03-21T01:09:26.045Z,9.23
2023-03-21T01:11:54.937Z,10.10
2023-03-21T01:14:24.101Z,9.10
2023-03-21T01:16:55.333Z,9.32
2023-03-21T01:19:41.063Z,10.00
2023-03-21T01:22:16.808Z,9.68
2023-03-21T01:24:55.101Z,10.15
2023-03-21T01:27:25.574Z,10.20
2023-03-21T01:29:56.479Z,10.18
2023-03-21T01:32:27.424Z,10.38
2023-03-21T01:34:58.723Z,9.63
2023-03-21T01:37:27.413Z,11.50
2023-03-21T01:39:57.241Z,10.65
2023-03-21T01:42:26.046Z,10.15
2023-03-21T01:44:55.664Z,10.05
2023-03-21T01:47:24.877Z,11.43
2023-03-21T01:50:22.305Z,9.85
2023-03-21T01:52:59.580Z,10.40
2023-03-21T01:55:33.029Z,8.93
2023-03-21T01:58:07.798Z,8.73
2023-03-21T02:01:00.117Z,7.60
2023-03-21T02:03:50.600Z,7.82
2023-03-21T02:06:43.939Z,6.80
2023-03-21T02:09:27.520Z,6.95
2023-03-21T02:11:58.635Z,6.97
2023-03-21T02:14:32.227Z,7.15
2023-03-21T02:17:14.441Z,7.00
2023-03-21T02:20:09.065Z,6.68
2023-03-21T02:22:45.816Z,6.57
2023-03-21T02:25:43.364Z,5.85
2023-03-21T02:28:15.398Z,5.35
2023-03-21T02:30:54.332Z,5.97
2023-03-21T02:33:42.422Z,4.97
2023-03-21T02:36:19.023Z,5.90
2023-03-21T02:38:57.327Z,5.43
2023-03-21T02:41:38.265Z,6.03
2023-03-21T02:44:11.593Z,6.13
2023-03-21T02:46:53.620Z,6.72
2023-03-21T02:49:28.979Z,6.30
2023-03-21T02:52:05.424Z,7.35
2023-03-21T02:54:48.589Z,6.60
2023-03-21T02:57:27.043Z,6.35
2023-03-21T03:00:10.553Z,6.18
2023-03-21T03:02:44.428Z,8.45
2023-03-21T03:05:21.364Z,6.75
2023-03-21T03:08:03.572Z,6.15
2023-03-21T03:10:46.973Z,7.00
2023-03-21T03:13:33.240Z,6.68
2023-03-21T03:16:08.070Z,7.78
2023-03-21T03:18:43.143Z,7.45
2023-03-21T03:21:14.916Z,7.40
2023-03-21T03:23:45.529Z,7.40
2023-03-21T03:26:16.497Z,7.28
2023-03-21T03:28:48.081Z,6.82
2023-03-21T03:31:26.182Z,7.50
2023-03-21T03:34:04.215Z,7.13
2023-03-21T03:36:35.863Z,6.93
2023-03-21T03:39:09.158Z,7.05
2023-03-21T03:44:37.885Z,6.68
2023-03-21T03:47:15.211Z,6.82
2023-03-21T03:49:50.177Z,6.68
2023-03-21T03:52:20.555Z,5.93
2023-03-21T03:55:01.939Z,7.03
2023-03-21T03:57:34.597Z,6.90
2023-03-21T04:00:11.980Z,7.25
2023-03-21T04:02:51.597Z,6.88
2023-03-21T04:05:24.181Z,6.68
2023-03-21T04:07:53.316Z,7.10
2023-03-21T04:10:29.263Z,6.75
2023-03-21T04:12:59.966Z,6.82
2023-03-21T04:15:43.464Z,6.38
2023-03-21T04:18:16.154Z,6.65
2023-03-21T04:20:48.844Z,8.27
2023-03-21T04:23:18.919Z,7.57
2023-03-21T04:25:56.649Z,7.30
2023-03-21T04:28:32.303Z,8.45
2023-03-21T04:31:24.597Z,7.70
2023-03-21T04:33:56.048Z,7.50
2023-03-21T04:36:33.180Z,7.57
2023-03-21T04:39:03.916Z,7.78
2023-03-21T04:41:33.625Z,7.80
2023-03-21T04:44:04.316Z,7.38
2023-03-21T04:46:34.273Z,7.57
2023-03-21T04:49:03.124Z,8.30
2023-03-21T04:51:31.809Z,7.90
2023-03-21T04:54:00.315Z,7.78
2023-03-21T04:56:32.646Z,9.07
2023-03-21T04:59:02.055Z,8.27
2023-03-21T05:01:30.941Z,8.35
2023-03-21T05:04:01.475Z,8.02
2023-03-21T05:06:36.707Z,8.48
2023-03-21T05:09:07.073Z,9.05
2023-03-21T05:11:42.736Z,8.23
2023-03-21T05:14:21.032Z,8.45
2023-03-21T05:16:53.513Z,8.52
2023-03-21T05:19:25.972Z,8.30
2023-03-21T05:21:54.985Z,9.65
2023-03-21T05:24:27.725Z,8.80
2023-03-21T05:27:02.647Z,8.60
2023-03-21T05:29:35.291Z,9.43
2023-03-21T05:32:08.966Z,8.60
2023-03-21T05:34:39.123Z,9.85
2023-03-21T05:37:07.933Z,9.15
2023-03-21T05:39:53.678Z,7.82
2023-03-21T05:42:32.143Z,8.57
2023-03-21T05:45:01.142Z,9.43
2023-03-21T05:47:32.293Z,8.18
2023-03-21T05:50:03.795Z,8.32
2023-03-21T05:52:33.430Z,8.20
2023-03-21T05:55:06.468Z,9.02
2023-03-21T05:57:46.221Z,8.35
2023-03-21T06:00:22.981Z,7.22
2023-03-21T06:03:06.020Z,9.15
2023-03-21T06:05:50.625Z,8.00
2023-03-21T06:08:30.186Z,8.15
2023-03-21T06:10:58.703Z,8.10
2023-03-21T06:13:32.925Z,8.40
2023-03-21T06:16:04.435Z,8.60
2023-03-21T06:18:40.849Z,8.50
2023-03-21T06:21:36.899Z,7.85
2023-03-21T06:24:10.231Z,8.13
2023-03-21T06:26:43.573Z,7.07
2023-03-21T06:29:14.712Z,8.52
2023-03-21T06:31:57.697Z,7.93
2023-03-21T06:34:27.016Z,7.90
2023-03-21T06:36:58.846Z,7.45
2023-03-21T06:39:43.356Z,8.90
2023-03-21T06:42:21.147Z,8.38
2023-03-21T06:45:04.691Z,6.70
2023-03-21T06:47:35.774Z,8.63
2023-03-21T06:50:36.241Z,8.25
2023-03-21T06:53:14.477Z,7.10
2023-03-21T07:03:54.365Z,7.15
2023-03-21T07:07:37.070Z,7.22
2023-03-21T07:10:27.520Z,6.65
2023-03-21T07:13:14.798Z,5.95
2023-03-21T07:16:01.422Z,6.28
2023-03-21T07:19:08.276Z,6.75
2023-03-21T07:21:42.911Z,5.65
2023-03-21T07:24:17.209Z,6.70
2023-03-21T07:26:54.873Z,6.00
2023-03-21T07:29:27.617Z,6.05
2023-03-21T07:31:57.225Z,5.60
2023-03-21T07:34:28.352Z,7.00
2023-03-21T07:36:58.101Z,5.60
2023-03-21T07:39:27.294Z,5.93
2023-03-21T07:41:57.351Z,6.72
2023-03-21T07:44:35.838Z,6.45
2023-03-21T07:47:06.261Z,6.97
2023-03-21T07:49:42.495Z,6.82
2023-03-21T07:52:14.224Z,6.28
2023-03-21T07:54:54.950Z,6.00
2023-03-21T07:57:30.198Z,6.53
2023-03-21T08:00:01.800Z,6.35
2023-03-21T08:02:31.475Z,6.90
2023-03-21T08:05:03.256Z,6.22
2023-03-21T08:07:36.014Z,6.10
2023-03-21T08:10:06.097Z,5.22
2023-03-21T08:12:35.678Z,5.63
2023-03-21T08:15:06.468Z,5.28
2023-03-21T08:17:41.483Z,5.65
2023-03-21T08:20:12.387Z,5.30
2023-03-21T08:22:42.402Z,5.60
2023-03-21T08:25:14.440Z,4.82
2023-03-21T08:27:44.912Z,5.72
2023-03-21T08:30:20.568Z,4.80
2023-03-21T08:32:50.368Z,6.18
2023-03-21T08:35:20.783Z,5.20
2023-03-21T08:37:54.504Z,4.63
2023-03-21T08:40:24.334Z,4.93
2023-03-21T08:42:52.848Z,5.13
2023-03-21T08:45:22.990Z,4.70
2023-03-21T08:47:54.131Z,4.95
2023-03-21T08:50:23.515Z,4.93
2023-03-21T08:52:52.276Z,4.45
2023-03-21T08:55:21.001Z,4.18
2023-03-21T08:57:49.773Z,3.53
2023-03-21T09:00:20.698Z,4.80
2023-03-21T09:02:54.569Z,4.15
2023-03-21T09:05:25.515Z,5.13
2023-03-21T09:07:54.609Z,4.82
2023-03-21T09:10:24.186Z,5.15
2023-03-21T09:12:53.800Z,5.45
2023-03-21T09:15:29.048Z,4.53
2023-03-21T09:18:15.004Z,4.85
2023-03-21T09:20:45.427Z,5.45
2023-03-21T09:23:14.185Z,4.90
2023-03-21T09:25:43.031Z,4.30
2023-03-21T09:28:16.656Z,4.82
2023-03-21T09:30:47.770Z,5.70
2023-03-21T09:33:21.357Z,5.68
2023-03-21T09:35:54.332Z,5.10
2023-03-21T09:38:23.507Z,5.63
2023-03-21T09:40:57.492Z,5.90
2023-03-21T09:43:33.173Z,6.22
2023-03-21T09:46:09.988Z,5.78
2023-03-21T09:48:54.467Z,6.13
2023-03-21T09:51:33.097Z,5.68
2023-03-21T09:54:05.263Z,5.95
2023-03-21T09:56:34.880Z,6.47
2023-03-21T09:59:09.652Z,5.20
2023-03-21T10:01:45.624Z,5.78
2023-03-21T10:04:19.101Z,5.18
2023-03-21T10:06:50.838Z,5.88
2023-03-21T10:09:23.309Z,5.18
2023-03-21T10:11:54.494Z,5.13
2023-03-21T10:14:27.347Z,5.28
2023-03-21T10:17:01.698Z,6.65
2023-03-21T10:19:32.049Z,6.65
2023-03-21T10:22:03.013Z,5.50
2023-03-21T10:24:41.854Z,5.57
2023-03-21T10:27:13.366Z,5.93
2023-03-21T10:29:43.947Z,5.72
2023-03-21T10:32:17.094Z,6.07
2023-03-21T10:34:48.499Z,6.07
2023-03-21T10:37:17.673Z,6.20
2023-03-21T10:39:47.591Z,6.70
2023-03-21T10:42:22.104Z,5.40
2023-03-21T10:44:53.912Z,5.85
2023-03-21T10:47:23.347Z,6.43
2023-03-21T10:50:10.345Z,5.78
2023-03-21T10:52:40.468Z,6.88
2023-03-21T10:55:12.725Z,6.25
2023-03-21T10:57:43.930Z,6.30
2023-03-21T11:00:20.306Z,5.85
2023-03-21T11:02:52.536Z,6.28
2023-03-21T11:05:24.099Z,5.25
2023-03-21T11:08:07.024Z,5.72
2023-03-21T11:10:38.155Z,5.70
2023-03-21T11:13:10.091Z,5.25
2023-03-21T11:15:43.793Z,6.25
2023-03-21T11:18:18.203Z,5.65
2023-03-21T11:21:05.034Z,4.93
2023-03-21T11:23:34.777Z,5.15
2023-03-21T11:26:04.483Z,5.68
2023-03-21T11:28:35.447Z,5.88
2023-03-21T11:31:05.322Z,5.72
2023-03-21T11:33:35.629Z,5.57
2023-03-21T11:36:08.032Z,5.53
2023-03-21T11:38:39.081Z,5.28
2023-03-21T11:41:10.796Z,4.63
2023-03-21T11:43:44.704Z,5.30
2023-03-21T11:46:16.016Z,4.93
2023-03-21T11:48:46.567Z,4.60
2023-03-21T11:51:24.065Z,4.45
2023-03-21T11:53:55.833Z,4.80
2023-03-21T11:56:25.934Z,5.18
2023-03-21T11:59:04.274Z,4.15
2023-03-21T12:01:39.133Z,4.68
2023-03-21T12:04:22.937Z,5.00
2023-03-21T12:06:55.625Z,5.22
2023-03-21T12:09:39.368Z,5.90
2023-03-21T12:12:38.338Z,5.38
2023-03-21T12:15:19.798Z,5.22
2023-03-21T12:17:52.733Z,6.20
2023-03-21T12:20:31.784Z,5.05
2023-03-21T12:23:15.764Z,5.65
2023-03-21T12:25:48.510Z,4.85
2023-03-21T12:28:32.033Z,4.90
2023-03-21T12:31:06.678Z,4.13
2023-03-21T12:33:48.735Z,4.57
2023-03-21T12:36:29.064Z,4.22
2023-03-21T12:39:05.812Z,4.72
2023-03-21T12:41:41.616Z,6.03
2023-03-21T12:44:15.728Z,4.97
2023-03-21T12:46:46.848Z,5.13
2023-03-21T12:49:22.471Z,5.22
2023-03-21T12:51:55.002Z,5.13
2023-03-21T12:54:33.996Z,5.57
2023-03-21T12:57:09.071Z,5.35
2023-03-21T12:59:40.652Z,5.65
2023-03-21T13:02:17.768Z,5.63
2023-03-21T13:04:49.245Z,5.75
2023-03-21T13:07:20.141Z,5.75
2023-03-21T13:09:51.363Z,5.88
2023-03-21T13:12:27.695Z,5.20
2023-03-21T13:15:07.854Z,4.60
2023-03-21T13:17:41.834Z,4.60
2023-03-21T13:20:14.991Z,5.25
2023-03-21T13:22:43.517Z,5.13
2023-03-21T13:25:19.042Z,4.78
2023-03-21T13:27:54.208Z,5.38
2023-03-21T13:30:23.677Z,4.63
2023-03-21T13:32:55.655Z,4.63
2023-03-21T13:35:29.119Z,5.03
2023-03-21T13:38:00.102Z,4.65
2023-03-21T13:40:33.487Z,4.57
2023-03-21T13:43:05.547Z,4.88
2023-03-21T13:45:38.027Z,5.22
2023-03-21T13:48:07.821Z,4.80
2023-03-21T13:50:42.544Z,5.03
2023-03-21T13:53:24.822Z,4.57
2023-03-21T13:56:23.791Z,4.10
2023-03-21T13:58:54.915Z,4.53
2023-03-21T14:01:31.958Z,4.72
2023-03-21T14:04:24.773Z,4.13
2023-03-21T14:06:58.772Z,4.70
2023-03-21T14:09:29.622Z,4.80
2023-03-21T14:12:06.982Z,4.78
2023-03-21T14:14:40.378Z,5.00
2023-03-21T14:17:16.541Z,4.78
2023-03-21T14:19:49.419Z,4.82
2023-03-21T14:22:18.542Z,4.50
2023-03-21T14:24:49.252Z,4.10
2023-03-21T14:27:17.739Z,4.35
2023-03-21T14:29:49.941Z,3.70
2023-03-21T14:32:20.932Z,3.47
2023-03-21T14:34:49.916Z,4.15
2023-03-21T14:37:30.678Z,3.72
2023-03-21T14:40:00.559Z,3.47
2023-03-21T14:42:29.889Z,3.83
2023-03-21T14:45:00.665Z,3.75
2023-03-21T14:47:32.202Z,3.65
2023-03-21T14:50:01.950Z,3.20
2023-03-21T14:52:32.312Z,3.38
2023-03-21T14:55:01.933Z,4.05
2023-03-21T14:57:32.132Z,2.90
2023-03-21T15:00:12.431Z,3.60
2023-03-21T15:02:45.487Z,3.30
2023-03-21T15:05:17.883Z,3.30
2023-03-21T15:07:56.895Z,3.30
2023-03-21T15:10:26.518Z,3.13
2023-03-21T15:12:55.758Z,3.28
2023-03-21T15:15:27.513Z,4.22
2023-03-21T15:18:05.949Z,3.63
2023-03-21T15:20:35.998Z,4.05
2023-03-21T15:23:06.452Z,3.00
2023-03-21T15:25:36.202Z,3.47
2023-03-21T15:28:06.252Z,2.92
2023-03-21T15:30:41.384Z,3.08
2023-03-21T15:33:13.678Z,3.40
2023-03-21T15:35:44.050Z,3.30
2023-03-21T15:38:23.412Z,3.38
2023-03-21T15:40:52.270Z,3.10
2023-03-21T15:43:21.774Z,3.30
2023-03-21T15:45:55.133Z,2.97
2023-03-21T15:48:24.443Z,3.35
2023-03-21T15:50:55.198Z,2.70
2023-03-21T15:53:27.258Z,3.30
2023-03-21T15:56:02.714Z,3.22
2023-03-21T15:58:36.187Z,2.67
2023-03-21T16:01:07.777Z,2.65
2023-03-21T16:03:42.378Z,3.10
2023-03-21T16:06:21.712Z,3.17
2023-03-21T16:08:51.092Z,2.67
2023-03-21T16:11:20.966Z,2.20
2023-03-21T16:14:00.500Z,2.20
2023-03-21T16:16:35.818Z,2.70
2023-03-21T16:19:09.939Z,2.00
2023-03-21T16:21:41.690Z,3.17
2023-03-21T16:24:13.680Z,3.15
2023-03-21T16:26:45.788Z,2.35
2023-03-21T16:29:14.778Z,2.33
2023-03-21T16:31:47.740Z,2.03
2023-03-21T16:34:16.683Z,2.67
2023-03-21T16:36:45.107Z,2.50
2023-03-21T16:39:17.723Z,2.60
2023-03-21T16:41:48.494Z,2.92
2023-03-21T16:44:22.299Z,3.42
2023-03-21T16:47:02.477Z,2.42
2023-03-21T16:49:33.337Z,2.70
2023-03-21T16:52:01.694Z,3.25
2023-03-21T16:54:30.441Z,2.75
2023-03-21T16:56:59.786Z,3.17
2023-03-21T16:59:31.149Z,3.03
2023-03-21T17:02:07.599Z,2.60
2023-03-21T17:04:36.962Z,2.38
2023-03-21T17:07:06.021Z,2.15
2023-03-21T17:09:36.559Z,2.35
2023-03-21T17:12:09.458Z,2.50
2023-03-21T17:14:38.036Z,2.50
2023-03-21T17:17:08.584Z,2.17
2023-03-21T17:19:39.156Z,2.20
2023-03-21T17:22:12.551Z,2.30
2023-03-21T17:24:44.786Z,2.30
2023-03-21T17:27:18.400Z,2.15
2023-03-21T17:29:47.421Z,2.50
2023-03-21T17:32:17.519Z,2.75
2023-03-21T17:34:46.127Z,3.20
2023-03-21T17:37:16.941Z,3.10
2023-03-21T17:39:45.407Z,2.83
2023-03-21T17:42:18.321Z,2.80
2023-03-21T17:44:49.095Z,2.65
2023-03-21T17:47:18.851Z,2.42
2023-03-21T17:49:47.636Z,1.90
2023-03-21T17:52:16.375Z,1.63
2023-03-21T17:54:47.053Z,1.42
2023-03-21T17:57:15.972Z,1.85
2023-03-21T17:59:44.634Z,1.50
2023-03-21T18:02:15.553Z,1.38
2023-03-21T18:04:47.845Z,1.23
2023-03-21T18:07:32.493Z,1.42
2023-03-21T18:10:07.885Z,0.60
2023-03-21T18:12:36.348Z,0.82
2023-03-21T18:15:14.112Z,1.10
2023-03-21T18:17:44.157Z,0.90
2023-03-21T18:20:19.914Z,1.00
2023-03-21T18:22:52.061Z,0.93
2023-03-21T18:25:21.125Z,1.00
2023-03-21T18:28:10.051Z,0.77
2023-03-21T18:31:05.205Z,1.13
2023-03-21T18:33:32.691Z,0.95
2023-03-21T18:36:07.807Z,1.00
2023-03-21T18:38:37.100Z,0.90
2023-03-21T18:41:09.393Z,1.27
2023-03-21T18:44:00.932Z,1.25
2023-03-21T18:46:27.603Z,1.75
2023-03-21T18:49:26.994Z,1.27
2023-03-21T18:51:51.808Z,0.90
2023-03-21T18:54:20.572Z,1.58
2023-03-21T18:57:34.184Z,1.45
2023-03-21T18:59:45.745Z,1.10
2023-03-21T19:02:21.184Z,1.60
2023-03-21T19:04:50.083Z,1.25
2023-03-21T19:07:25.004Z,1.30
2023-03-21T19:10:20.694Z,1.48
2023-03-21T19:12:42.653Z,1.42
2023-03-21T19:15:19.868Z,1.52
2023-03-21T19:20:44.612Z,1.65
2023-03-21T19:23:15.116Z,1.77
2023-03-21T19:25:44.674Z,1.95
2023-03-21T19:28:13.159Z,2.30
2023-03-21T19:30:49.723Z,2.28
2023-03-21T19:33:20.004Z,2.22
2023-03-21T19:35:50.381Z,2.42
2023-03-21T19:38:22.392Z,2.33
2023-03-21T19:40:51.116Z,2.35
2023-03-21T19:43:33.112Z,2.53
2023-03-21T19:46:03.038Z,2.67
2023-03-21T19:48:37.134Z,3.05
2023-03-21T19:51:27.708Z,3.00
2023-03-21T19:53:59.070Z,2.90
2023-03-21T19:56:28.020Z,2.97
2023-03-21T19:58:58.856Z,2.92
2023-03-21T20:01:27.754Z,3.35
2023-03-21T20:03:56.746Z,2.70
2023-03-21T20:06:25.161Z,2.90
2023-03-21T20:11:46.690Z,2.50
2023-03-21T20:14:17.281Z,2.50
2023-03-21T20:16:48.474Z,2.28
2023-03-21T20:19:20.096Z,2.55
2023-03-21T20:21:56.541Z,2.20
2023-03-21T20:24:27.567Z,2.13
2023-03-21T20:26:57.496Z,2.00
2023-03-21T20:32:15.727Z,1.88
2023-03-21T20:34:44.773Z,1.90
2023-03-21T20:37:13.746Z,1.73
2023-03-21T20:39:42.650Z,1.60
2023-03-21T20:42:12.630Z,1.55
2023-03-21T20:44:57.956Z,1.52
2023-03-21T20:47:29.031Z,1.52
2023-03-21T20:49:58.558Z,1.45
2023-03-21T20:55:16.360Z,1.48
2023-03-21T20:57:49.025Z,1.50
2023-03-21T21:00:18.857Z,1.75
2023-03-21T21:02:50.268Z,1.50
2023-03-21T21:05:30.096Z,1.13
2023-03-21T21:08:00.939Z,1.35
2023-03-21T21:10:29.715Z,1.20
2023-03-21T21:13:05.543Z,1.33
2023-03-21T21:15:34.582Z,1.67
2023-03-21T21:18:07.434Z,1.50
2023-03-21T21:20:41.694Z,1.90
2023-03-21T21:23:13.566Z,1.63
2023-03-21T21:25:44.690Z,1.25
2023-03-21T21:28:14.992Z,1.73
2023-03-21T21:30:43.447Z,1.88
2023-03-21T21:33:14.951Z,1.73
2023-03-21T21:35:47.941Z,1.50
2023-03-21T21:38:17.725Z,1.45
2023-03-21T21:40:51.129Z,1.60
2023-03-21T21:43:25.923Z,1.40
2023-03-21T21:45:54.388Z,1.45
2023-03-21T21:48:27.231Z,1.25
2023-03-21T21:50:56.015Z,1.60
2023-03-21T21:53:28.355Z,1.65
2023-03-21T21:55:57.152Z,2.05
2023-03-21T21:58:26.975Z,1.63
2023-03-21T22:00:59.594Z,1.55
2023-03-21T22:03:36.410Z,1.40
2023-03-21T22:06:05.422Z,2.00
2023-03-21T22:08:35.187Z,1.25
2023-03-21T22:11:07.443Z,2.13
2023-03-21T22:13:40.703Z,1.88
2023-03-21T22:16:17.094Z,1.92
2023-03-21T22:18:45.742Z,1.20
2023-03-21T22:21:14.078Z,2.00
2023-03-21T22:23:42.855Z,1.13
2023-03-21T22:26:11.740Z,0.90
2023-03-21T22:28:46.976Z,1.38
2023-03-21T22:31:18.841Z,1.00
2023-03-21T22:33:48.691Z,1.08
2023-03-21T22:36:17.379Z,1.02
2023-03-21T22:38:45.929Z,1.40
2023-03-21T22:41:14.490Z,0.93
2023-03-21T22:43:47.115Z,2.17
2023-03-21T22:46:17.874Z,1.30
2023-03-21T22:48:46.428Z,1.25
2023-03-21T22:51:16.418Z,1.65
2023-03-21T22:53:44.831Z,1.05
2023-03-21T22:56:13.448Z,1.10
2023-03-21T22:58:44.078Z,1.20
2023-03-21T23:01:13.967Z,1.65
2023-03-21T23:03:42.826Z,1.77
2023-03-21T23:06:11.446Z,1.02
2023-03-21T23:08:40.021Z,1.60
2023-03-21T23:11:09.013Z,1.33
2023-03-21T23:13:37.890Z,1.48
2023-03-21T23:16:06.565Z,1.10
2023-03-21T23:18:37.366Z,1.08
2023-03-21T23:21:13.405Z,0.90
2023-03-21T23:23:43.927Z,1.40
2023-03-21T23:26:13.041Z,1.15
2023-03-21T23:28:41.462Z,1.45
2023-03-21T23:31:11.518Z,1.50
2023-03-21T23:33:41.815Z,1.63
2023-03-21T23:36:11.702Z,1.02
2023-03-21T23:38:40.614Z,1.65
2023-03-21T23:41:09.995Z,1.75
2023-03-21T23:43:39.097Z,1.92
2023-03-21T23:46:10.275Z,1.30
2023-03-21T23:48:41.411Z,1.83
2023-03-21T23:51:12.285Z,1.52
2023-03-21T23:53:40.946Z,1.05
2023-03-21T23:56:12.620Z,1.33
2023-03-21T23:58:43.587Z,1.15
